Latest Weather Observations for Bega

IDN60801

Issued at 9:35 am EDT Friday 21 November 2014 (issued every 30 minutes, with the page automatically refreshed every 10 minutes)

About weather observations | Map of weather stations | Latest weather observations for NSW | Other Formats
Station Details ID: 069139 Name: BEGA AWS Lat: -36.67 Lon: 149.82 Height: 41.0 m
Data from the previous 72 hours. | See also: Recent months at Bega
Date/Time
EDT
Temp
°C
App
Temp
°C
Dew
Point
Rel
Hum
%
Delta-T
°C
Wind Press
QNH
hPa
Press
MSL
hPa
Rain
since 9 am
mm
Dir
 
Spd
km/h
Gust
km/h
Spd
kts
Gust
kts
21/09:30am 25.8 26.8 16.4 56 5.8 SE 6 9 3 5 1006.2 1006.1 0.0
21/09:00am 23.8 24.0 15.8 61 4.9 S 9 13 5 7 1006.1 1006.0 0.0
21/08:30am 22.3 23.0 16.1 68 3.8 SSE 7 11 4 6 1006.0 1005.9 0.0
21/08:00am 20.1 20.2 15.5 75 2.7 SSW 9 15 5 8 1005.9 1005.8 0.0
21/07:30am 17.5 19.6 16.2 92 0.8 CALM 0 0 0 0 1005.7 1005.6 0.0
21/07:00am 17.0 17.6 15.7 92 0.8 SSW 7 9 4 5 1005.7 1005.6 0.0
21/06:30am 16.8 18.0 15.8 94 0.6 S 4 7 2 4 1005.3 1005.2 0.0
21/06:00am 16.8 18.3 15.8 94 0.6 SW 2 6 1 3 1005.2 1005.1 0.0
21/05:30am 17.3 18.7 15.3 88 1.2 NE 2 6 1 3 1005.2 1005.1 0.0
21/05:00am 17.5 17.7 15.7 89 1.1 NW 9 11 5 6 1005.2 1005.1 0.0
21/04:30am 17.0 17.6 15.9 93 0.6 NNW 7 13 4 7 1005.3 1005.2 0.0
21/04:00am 17.2 18.8 15.9 92 0.8 S 2 7 1 4 1005.9 1005.8 0.0
21/03:30am 17.8 20.0 16.5 92 0.8 CALM 0 0 0 0 1006.3 1006.2 0.0
21/03:00am 18.2 20.6 16.9 92 0.8 ESE 0 0 0 0 1006.5 1006.4 0.0
21/02:30am 18.3 20.5 16.6 90 1.0 CALM 0 6 0 3 1006.6 1006.5 0.0
21/02:00am 18.9 21.1 16.5 86 1.4 CALM 0 4 0 2 1007.4 1007.3 0.0
21/01:30am 18.9 20.2 17.0 89 1.2 NW 6 7 3 4 1007.4 1007.3 0.0
21/01:00am 19.4 20.8 17.4 88 1.2 NNW 6 9 3 5 1007.4 1007.3 0.0
21/12:30am 19.1 20.0 17.6 91 0.9 NW 9 15 5 8 1007.6 1007.5 0.0
21/12:00am 19.3 20.7 17.8 91 0.9 N 7 11 4 6 1007.8 1007.7 0.0
 
Date/Time
EDT
Temp
°C
App
Temp
°C
Dew
Point
Rel
Hum
%
Delta-T
°C
Wind Press
QNH
hPa
Press
MSL
hPa
Rain
since 9 am
mm
Dir
 
Spd
km/h
Gust
km/h
Spd
kts
Gust
kts
20/11:30pm 19.5 21.6 18.2 92 0.8 SW 4 7 2 4 1008.0 1007.9 0.0
20/11:00pm 20.0 22.5 18.1 89 1.2 NNE 2 6 1 3 1007.1 1007.0 0.0
20/10:30pm 20.1 23.0 18.2 89 1.2 CALM 0 4 0 2 1006.8 1006.7 0.0
20/10:00pm 20.3 22.8 18.2 88 1.3 SSE 2 7 1 4 1006.9 1006.8 0.0
20/09:30pm 20.3 21.9 18.2 88 1.3 S 7 11 4 6 1007.1 1007.0 0.0
20/09:00pm 20.7 23.0 17.7 83 1.9 SE 2 6 1 3 1006.7 1006.6 0.0
20/08:30pm 21.0 22.5 18.0 83 1.9 SSE 7 11 4 6 1006.7 1006.6 0.0
20/08:00pm 21.2 22.7 17.6 80 2.2 SE 6 13 3 7 1006.4 1006.3 0.0
20/07:30pm 21.9 23.2 17.5 76 2.7 SE 7 9 4 5 1006.4 1006.3 0.0
20/07:00pm 22.9 23.2 17.1 70 3.6 SSE 11 15 6 8 1005.9 1005.8 0.0
20/06:30pm 24.8 24.2 15.7 57 5.5 SSE 13 17 7 9 1005.5 1005.4 0.0
20/06:00pm 27.3 26.1 12.9 41 8.5 SE 11 15 6 8 1004.9 1004.8 0.0
20/05:30pm 28.8 26.5 10.5 32 10.4 ENE 13 19 7 10 1004.9 1004.8 0.0
20/05:00pm 29.3 26.8 10.9 32 10.6 ENE 15 20 8 11 1004.7 1004.6 0.0
20/04:30pm 30.8 27.2 10.7 29 11.5 ENE 20 26 11 14 1004.7 1004.6 0.0
20/04:00pm 31.5 27.3 9.7 26 12.4 ENE 22 32 12 17 1004.7 1004.6 0.0
20/03:30pm 31.2 26.5 10.5 28 11.9 NE 26 35 14 19 1005.0 1004.9 0.0
20/03:00pm 32.5 28.9 10.5 26 12.7 ENE 20 26 11 14 1005.5 1005.4 0.0
20/02:30pm 33.3 29.9 11.2 26 12.9 E 20 26 11 14 1005.7 1005.6 0.0
20/02:00pm 32.4 29.6 12.6 30 11.8 SE 19 26 10 14 1006.0 1005.9 0.0
20/01:30pm 33.2 31.2 13.8 31 11.8 SE 17 20 9 11 1006.4 1006.3 0.0
20/01:00pm 32.6 29.5 7.4 21 13.9 E 13 19 7 10 1006.8 1006.7 0.0
20/12:30pm 31.8 30.0 11.0 28 12.1 ENE 11 19 6 10 1007.5 1007.4 0.0
20/12:00pm 30.6 28.9 12.5 33 10.7 E 13 17 7 9 1008.1 1008.0 0.0
20/11:30am 29.6 28.7 12.5 35 10.1 ENE 9 13 5 7 1008.7 1008.6 0.0
20/11:00am 28.4 28.4 14.3 42 8.5 NE 7 11 4 6 1009.2 1009.1 0.0
20/10:30am 24.7 25.9 15.9 58 5.4 SSE 4 9 2 5 1009.9 1009.8 0.0
20/10:00am 22.3 23.3 16.3 69 3.6 SSE 6 9 3 5 1010.3 1010.2 0.0
20/09:30am 18.8 19.7 16.0 84 1.7 NE 6 9 3 5 1011.1 1011.0 0.0
20/09:00am 15.5 16.1 15.3 99 0.1 S 6 11 3 6 1011.7 1011.7 0.0
20/08:30am 14.4 15.4 14.2 99 0.1 SSE 2 7 1 4 1012.1 1012.1 0.0
20/08:00am 13.7 14.8 13.5 99 0.1 CALM 0 6 0 3 1012.3 1012.3 0.0
20/07:30am 12.8 12.9 12.6 99 0.1 SE 4 7 2 4 1012.4 1012.4 0.0
20/07:00am 12.5 12.1 12.3 99 0.1 S 6 9 3 5 1012.4 1012.4 0.0
20/06:30am 12.3 12.6 12.1 99 0.1 N 2 7 1 4 1012.1 1012.1 0.0
20/06:00am 11.8 12.3 11.6 99 0.1 CALM 0 6 0 3 1012.5 1012.5 0.0
20/05:30am 12.3 11.8 12.1 99 0.1 SSW 6 9 3 5 1012.2 1012.2 0.0
20/05:00am 12.4 13.1 12.2 99 0.1 CALM 0 0 0 0 1012.1 1012.1 0.0
20/04:30am 12.4 13.1 12.2 99 0.1 CALM 0 0 0 0 1012.3 1012.3 0.0
20/04:00am 12.3 13.0 12.1 99 0.1 CALM 0 0 0 0 1012.8 1012.8 0.0
20/03:30am 12.3 13.0 12.1 99 0.1 CALM 0 0 0 0 1012.9 1012.9 0.0
20/03:00am 12.7 13.5 12.5 99 0.1 CALM 0 6 0 3 1013.1 1013.1 0.0
20/02:30am 13.3 13.1 13.0 98 0.2 SSW 6 9 3 5 1013.3 1013.3 0.0
20/02:00am 14.4 15.7 14.1 98 0.2 CALM 0 0 0 0 1013.4 1013.4 0.0
20/01:30am 14.4 14.8 13.8 96 0.3 ENE 4 9 2 5 1013.8 1013.8 0.0
20/01:00am 15.4 15.8 14.8 96 0.3 SW 6 9 3 5 1014.7 1014.7 0.0
20/12:30am 15.5 16.1 14.2 92 0.7 NW 4 9 2 5 1014.6 1014.6 0.0
20/12:00am 16.4 17.4 14.4 88 1.1 N 2 7 1 4 1014.9 1014.9 0.0
 
Date/Time
EDT
Temp
°C
App
Temp
°C
Dew
Point
Rel
Hum
%
Delta-T
°C
Wind Press
QNH
hPa
Press
MSL
hPa
Rain
since 9 am
mm
Dir
 
Spd
km/h
Gust
km/h
Spd
kts
Gust
kts
19/11:30pm 17.1 18.3 14.9 87 1.3 N 2 6 1 3 1015.0 1015.0 0.0
19/11:00pm 17.4 19.0 15.0 86 1.4 CALM 0 0 0 0 1015.1 1015.1 0.0
19/10:30pm 17.8 19.5 15.1 84 1.6 CALM 0 0 0 0 1015.4 1015.4 0.0
19/10:00pm 18.0 18.5 15.1 83 1.7 NE 6 6 3 3 1015.8 1015.7 0.0
19/09:30pm 18.1 18.5 15.2 83 1.7 N 7 9 4 5 1015.9 1015.8 0.0
19/09:00pm 18.1 17.6 15.0 82 1.8 NNE 11 15 6 8 1015.4 1015.4 0.0
19/08:30pm 18.6 17.0 15.1 80 2.0 NNE 17 22 9 12 1015.4 1015.4 0.0
19/08:00pm 18.9 17.3 15.0 78 2.3 NNE 17 24 9 13 1015.2 1015.2 0.0
19/07:30pm 19.2 17.6 15.1 77 2.4 NE 17 22 9 12 1015.2 1015.2 0.0
19/07:00pm 19.8 17.6 15.0 74 2.8 NNE 20 28 11 15 1015.2 1015.2 0.0
19/06:30pm 20.1 18.2 15.1 73 2.9 NE 19 26 10 14 1015.0 1015.0 0.0
19/06:00pm 20.2 17.3 15.2 73 3.0 NE 24 32 13 17 1014.6 1014.6 0.0
19/05:30pm 20.8 17.9 15.1 70 3.4 NE 24 30 13 16 1014.8 1014.8 0.0
19/05:00pm 21.6 18.4 15.4 68 3.7 ENE 26 35 14 19 1015.0 1015.0 0.0
19/04:30pm 21.4 18.5 15.0 67 3.8 NE 24 33 13 18 1015.1 1015.1 0.0
19/04:00pm 22.2 20.2 15.5 66 4.0 NE 20 28 11 15 1015.2 1015.2 0.0
19/03:30pm 23.0 20.9 15.3 62 4.6 ENE 20 30 11 16 1015.9 1015.8 0.0
19/03:00pm 22.2 19.1 14.6 62 4.5 ENE 24 32 13 17 1016.4 1016.3 0.0
19/02:30pm 22.0 19.3 14.6 63 4.4 NE 22 30 12 16 1016.9 1016.8 0.0
19/02:00pm 22.1 19.4 14.5 62 4.5 ENE 22 30 12 16 1017.5 1017.4 0.0
19/01:30pm 23.7 21.9 15.5 60 4.9 ENE 19 28 10 15 1018.0 1017.9 0.0
19/01:00pm 22.4 20.3 15.3 64 4.2 NE 20 26 11 14 1018.5 1018.4 0.0
19/12:30pm 22.3 20.1 14.9 63 4.4 ENE 20 30 11 16 1018.7 1018.6 0.0
19/12:00pm 22.6 21.3 15.9 66 4.0 NE 17 24 9 13 1019.5 1019.4 0.0
19/11:30am 21.3 20.2 15.4 69 3.5 ESE 15 26 8 14 1020.1 1020.0 0.0
19/11:00am 20.2 18.7 14.3 69 3.4 E 15 22 8 12 1020.6 1020.5 0.0
19/10:30am 18.5 18.0 13.8 74 2.7 E 9 11 5 6 1020.8 1020.7 0.0
19/10:00am 17.9 17.6 13.2 74 2.6 ESE 7 9 4 5 1021.0 1020.9 0.0
19/09:30am 17.4 17.0 12.5 73 2.7 ESE 6 9 3 5 1021.3 1021.2 0.0
19/09:00am 16.9 17.5 13.0 78 2.2 SSE 2 7 1 4 1021.4 1021.3 0.0
19/08:30am 14.8 15.5 12.3 85 1.4 CALM 0 0 0 0 1021.6 1021.5 0.0
19/08:00am 13.8 14.6 12.4 91 0.8 CALM 0 0 0 0 1021.6 1021.5 0.0
19/07:30am 13.3 14.0 12.2 93 0.6 CALM 0 0 0 0 1021.5 1021.4 0.0
19/07:00am 13.0 13.7 12.2 95 0.4 CALM 0 0 0 0 1021.4 1021.3 0.0
19/06:30am 12.6 13.2 11.8 95 0.4 CALM 0 0 0 0 1021.2 1021.1 0.0
19/06:00am 12.2 12.3 11.4 95 0.4 W 2 6 1 3 1021.0 1020.9 0.0
19/05:30am 12.0 12.4 11.4 96 0.3 CALM 0 0 0 0 1021.0 1020.9 0.0
19/05:00am 11.9 12.3 11.4 97 0.3 CALM 0 0 0 0 1020.9 1020.8 0.0
19/04:30am 11.5 11.5 11.0 97 0.3 N 2 7 1 4 1021.0 1020.9 0.0
19/04:00am 11.3 11.6 10.8 97 0.3 CALM 0 0 0 0 1020.9 1020.8 0.0
19/03:30am 11.3 11.6 10.8 97 0.3 CALM 0 0 0 0 1021.0 1020.9 0.0
19/03:00am 11.3 11.6 11.0 98 0.2 CALM 0 0 0 0 1021.0 1020.9 0.0
19/02:30am 11.2 11.4 10.7 97 0.3 CALM 0 0 0 0 1021.0 1020.9 0.0
19/02:00am 11.1 11.2 10.3 95 0.4 CALM 0 0 0 0 1021.2 1021.1 0.0
19/01:30am 11.7 12.0 10.9 95 0.4 CALM 0 0 0 0 1021.4 1021.3 0.0
19/01:00am 11.9 12.2 10.8 93 0.6 CALM 0 0 0 0 1021.6 1021.5 0.0
19/12:30am 12.6 13.0 11.3 92 0.7 CALM 0 0 0 0 1021.8 1021.7 0.0
19/12:00am 13.0 13.0 11.1 88 1.0 SSW 2 6 1 3 1022.1 1022.0 0.0
 
Date/Time
EDT
Temp
°C
App
Temp
°C
Dew
Point
Rel
Hum
%
Delta-T
°C
Wind Press
QNH
hPa
Press
MSL
hPa
Rain
since 9 am
mm
Dir
 
Spd
km/h
Gust
km/h
Spd
kts
Gust
kts
18/11:30pm 13.8 14.2 11.1 84 1.4 CALM 0 0 0 0 1022.2 1022.1 0.0
18/11:00pm 15.0 14.3 11.4 79 1.9 N 6 7 3 4 1022.2 1022.1 0.0
18/10:30pm 14.6 15.1 11.6 82 1.6 CALM 0 0 0 0 1022.2 1022.1 0.0
18/10:00pm 15.3 15.0 11.3 77 2.1 N 4 9 2 5 1021.9 1021.8 0.0
18/09:30pm 15.3 14.0 11.1 76 2.2 NNW 9 9 5 5 1021.6 1021.5 0.0
18/09:00pm 15.4 14.0 10.8 74 2.4 N 9 11 5 6 1021.1 1021.0 0.0
18/08:30pm 16.2 14.4 10.9 71 2.8 NNE 11 15 6 8 1020.8 1020.7 0.0
18/08:00pm 16.5 14.7 11.0 70 2.9 NNE 11 15 6 8 1020.5 1020.4 0.0
18/07:30pm 16.8 14.7 11.1 69 3.1 NE 13 17 7 9 1019.9 1019.8 0.0
18/07:00pm 16.8 14.3 11.1 69 3.1 NE 15 20 8 11 1019.3 1019.2 0.0
18/06:30pm 17.4 14.9 11.2 67 3.4 NE 15 17 8 9 1019.0 1018.9 0.0
18/06:00pm 17.7 15.3 11.3 66 3.5 NE 15 20 8 11 1018.6 1018.5 0.0
18/05:30pm 18.6 16.3 11.7 64 3.8 E 15 20 8 11 1018.5 1018.4 0.0
18/05:00pm 18.6 15.1 10.9 61 4.2 ENE 20 24 11 13 1018.1 1018.0 0.0
18/04:30pm 18.8 15.4 11.1 61 4.2 ENE 20 28 11 15 1017.9 1017.8 0.0
18/04:00pm 19.2 15.8 11.3 60 4.3 ENE 20 26 11 14 1017.8 1017.7 0.0
18/03:30pm 20.4 17.5 12.4 60 4.5 E 19 30 10 16 1017.7 1017.6 0.0
18/03:00pm 20.3 17.8 12.3 60 4.5 NE 17 28 9 15 1017.6 1017.5 0.0
18/02:30pm 21.5 18.6 12.4 56 5.1 E 19 30 10 16 1017.6 1017.5 0.0
18/02:00pm 21.7 19.0 13.6 60 4.7 E 20 33 11 18 1017.7 1017.6 0.0
18/01:30pm 21.9 18.9 12.7 56 5.2 E 20 30 11 16 1017.6 1017.5 0.0
18/01:00pm 21.4 18.4 12.5 57 5.0 E 20 26 11 14 1017.7 1017.6 0.0
18/12:30pm 21.1 17.6 12.3 57 5.0 E 22 33 12 18 1017.8 1017.7 0.0
18/12:00pm 22.3 19.6 13.6 58 5.0 ENE 20 26 11 14 1017.9 1017.8 0.0
18/11:30am 21.5 19.6 12.9 58 4.9 NE 15 20 8 11 1018.1 1018.0 0.0
18/11:00am 21.3 20.6 14.2 64 4.1 E 11 20 6 11 1018.5 1018.4 0.0
18/10:30am 20.3 19.5 12.8 62 4.2 NNE 9 15 5 8 1018.5 1018.4 0.0
18/10:00am 17.8 17.0 11.8 68 3.3 S 7 13 4 7 1018.6 1018.5 0.0

Other Formats:

Comma delimited format used in spreadsheet applications
http://www.bom.gov.au/fwo/IDN60801/IDN60801.95931.axf

JavaScript Object Notation format (JSON) in row-major order
http://www.bom.gov.au/fwo/IDN60801/IDN60801.95931.json